首页
METAR-TAF:

METAR-TAF

机场 :

Nörvenich, 德国

纬度: 50-50N, 经度: 006-40E, 海拔: 118米

当前天气观测

该预报发布于1小时和0分钟前的14:20 UTC
风速3节,风向
温度 26°C
湿度 37%
气压 1018 hPa
能见度10公里或以上
散云层高于6000英尺

METAR: ETNN 171420Z 10003KT 9999 SCT060 26/10 Q1018 BLU+BLU+

时间: 17:20 (15:20 UTC)

预报

该预报发布于2小时和0分钟前的13:20 UTC
预报有效从17日的 14点(UTC)到 17日的 23点(UTC)
风速5节,风向东转东南
能见度10公里或以上
散云层高于5000英尺
多云层高于28000英尺

TAF: ETNN 171320Z 1714/1723 11005KT 9999 NSW SCT050 BKN280 BY ETGL

超过4000个机场的气象观测和天气预报(METAR&TAF报告)。

可查询的气象台以黄色和红色小点在地图上表示。

将鼠标移到小点上方,可查看气象台名称。

然后点击查看天气观测和预报。

如需切换地图:点击带黑十字的绿色按钮放大地图;点击带横线的绿色按钮缩小地图;或者点击绿色箭头查看邻近地区的地图。


METAR-TAF: